Time;durP1;ratioP1;P1;durP2;ratioP2;P2;SDS_P1;SDS_P2;PMS_P1;PMS_P2;Temp;Humidity;BMP_temperature;BMP_pressure;BME280_temperature;BME280_humidity;BME280_pressure;Samples;Min_cycle;Max_cycle;Signal;HPM_P1;HPM_P2
2023/08/21 00:00:48;;;;;;;8.35;7.15;;;;;;;22.70;68.87;96401.00;2065596;28;20407;-60
2023/08/21 00:01:49;;;;;;;10.40;7.70;;;;;;;22.67;68.92;96399.47;2065576;28;20050;-60
2023/08/21 00:02:50;;;;;;;9.30;8.07;;;;;;;22.65;69.62;96391.66;2065965;28;20487;-60
2023/08/21 00:03:51;;;;;;;9.40;7.80;;;;;;;22.69;69.49;96394.84;2065904;28;20061;-60
2023/08/21 00:04:52;;;;;;;9.88;7.72;;;;;;;22.68;69.78;96403.78;2066265;28;20061;-60
2023/08/21 00:05:53;;;;;;;11.60;7.47;;;;;;;22.66;69.48;96395.97;2066148;28;20411;-60
2023/08/21 00:06:54;;;;;;;10.60;7.88;;;;;;;22.64;69.64;96394.44;2065668;28;20414;-60
2023/08/21 00:07:55;;;;;;;9.15;7.57;;;;;;;22.63;70.19;96390.97;2065544;28;20054;-60
2023/08/21 00:08:56;;;;;;;8.65;7.63;;;;;;;22.62;70.05;96397.22;2066034;28;20062;-59
2023/08/21 00:09:58;;;;;;;9.55;7.93;;;;;;;22.59;70.71;96401.97;2065698;28;20491;-60
2023/08/21 00:10:59;;;;;;;10.00;8.48;;;;;;;22.56;70.43;96396.94;2065553;28;20054;-60
2023/08/21 00:12:00;;;;;;;8.88;7.97;;;;;;;22.53;70.49;96394.56;2065368;28;20057;-60
2023/08/21 00:13:01;;;;;;;14.32;8.55;;;;;;;22.50;71.02;96392.19;2066117;28;20410;-60
2023/08/21 00:14:02;;;;;;;10.43;7.78;;;;;;;22.40;71.96;96389.50;2065689;28;20049;-60
2023/08/21 00:15:04;;;;;;;9.13;7.93;;;;;;;22.38;72.11;96391.47;2065540;28;20403;-60
2023/08/21 00:16:05;;;;;;;10.55;8.40;;;;;;;22.32;72.38;96394.66;2065548;28;20057;-60
2023/08/21 00:17:07;;;;;;;11.15;8.55;;;;;;;22.17;72.58;96391.53;2066117;28;20465;-60
2023/08/21 00:18:09;;;;;;;11.38;8.32;;;;;;;22.11;73.04;96390.25;2066064;28;20046;-60
2023/08/21 00:19:10;;;;;;;10.25;8.05;;;;;;;22.02;73.48;96385.75;2065685;28;20046;-60
2023/08/21 00:20:11;;;;;;;12.73;8.05;;;;;;;21.97;73.69;96388.81;2066085;28;20410;-60
2023/08/21 00:21:12;;;;;;;11.80;7.68;;;;;;;21.94;73.74;96396.16;2066033;28;20054;-60
2023/08/21 00:22:13;;;;;;;11.75;8.15;;;;;;;21.95;74.11;96389.94;2065877;28;20081;-60
2023/08/21 00:23:14;;;;;;;11.02;8.32;;;;;;;21.96;74.23;96396.88;2066094;28;20053;-60
2023/08/21 00:24:15;;;;;;;13.25;8.73;;;;;;;21.99;74.22;96386.03;2065624;28;20050;-60
2023/08/21 00:25:16;;;;;;;11.95;8.48;;;;;;;22.01;74.06;96392.03;2065202;28;20050;-60
2023/08/21 00:26:18;;;;;;;11.25;8.32;;;;;;;22.01;74.03;96387.56;2065969;28;20053;-58
2023/08/21 00:27:19;;;;;;;8.93;7.82;;;;;;;22.01;74.91;96387.56;2065792;28;20065;-58
2023/08/21 00:28:20;;;;;;;10.57;8.05;;;;;;;22.02;74.27;96391.03;2065841;28;20049;-60
2023/08/21 00:29:21;;;;;;;13.25;8.38;;;;;;;21.97;74.57;96382.66;2057357;28;20077;-59
2023/08/21 00:30:22;;;;;;;12.82;8.85;;;;;;;21.93;74.23;96379.47;2056602;28;20046;-60
2023/08/21 00:31:23;;;;;;;11.18;7.88;;;;;;;21.94;74.46;96383.78;2065222;28;20054;-60
2023/08/21 00:32:24;;;;;;;10.45;8.07;;;;;;;21.92;74.55;96388.38;2065796;28;20050;-59
2023/08/21 00:33:25;;;;;;;14.57;8.52;;;;;;;21.89;74.45;96379.84;2065547;28;20058;-59
2023/08/21 00:34:27;;;;;;;11.32;8.45;;;;;;;21.86;75.00;96386.25;2065818;28;20051;-59
2023/08/21 00:35:28;;;;;;;10.02;8.38;;;;;;;21.82;75.52;96381.38;2065725;28;20054;-59
2023/08/21 00:36:29;;;;;;;10.68;8.50;;;;;;;21.76;75.44;96383.59;2057163;28;20062;-59
2023/08/21 00:37:30;;;;;;;10.48;8.02;;;;;;;21.71;75.09;96387.59;2057075;28;20055;-60
2023/08/21 00:38:31;;;;;;;9.68;8.02;;;;;;;21.68;75.53;96386.03;2057338;28;20047;-60
2023/08/21 00:39:33;;;;;;;8.82;7.72;;;;;;;21.67;75.68;96387.00;2056716;28;20065;-60
2023/08/21 00:40:34;;;;;;;11.52;8.57;;;;;;;21.62;76.05;96389.19;2065851;28;20054;-59
2023/08/21 00:41:36;;;;;;;15.00;8.63;;;;;;;21.59;75.97;96384.16;2065748;28;20062;-60
2023/08/21 00:42:37;;;;;;;10.10;8.25;;;;;;;21.54;76.23;96379.31;2065744;28;20054;-58
2023/08/21 00:43:38;;;;;;;12.68;8.98;;;;;;;21.54;75.85;96384.59;2065283;28;20065;-60
2023/08/21 00:44:39;;;;;;;9.93;8.32;;;;;;;21.53;75.85;96382.06;2065015;28;20057;-60
2023/08/21 00:45:41;;;;;;;9.07;8.07;;;;;;;21.48;76.30;96376.34;2065786;28;20089;-59
2023/08/21 00:46:42;;;;;;;12.60;8.95;;;;;;;21.46;76.27;96383.53;2064629;28;20066;-60
2023/08/21 00:47:43;;;;;;;11.75;8.70;;;;;;;21.41;76.32;96383.09;2049403;29;20070;-59
2023/08/21 00:48:44;;;;;;;11.05;9.02;;;;;;;21.32;76.23;96380.22;2040778;29;20059;-59
2023/08/21 00:49:45;;;;;;;12.50;9.68;;;;;;;21.30;77.11;96386.59;2048826;29;20063;-59
2023/08/21 00:50:46;;;;;;;11.95;8.90;;;;;;;21.27;77.34;96385.06;2056601;28;20073;-59
2023/08/21 00:51:48;;;;;;;8.68;7.78;;;;;;;21.21;77.90;96380.31;2064401;28;20436;-59
2023/08/21 00:52:49;;;;;;;11.18;9.20;;;;;;;21.17;78.29;96376.25;2041138;29;20056;-60
2023/08/21 00:53:50;;;;;;;10.07;8.60;;;;;;;21.17;79.28;96386.81;2033363;29;20059;-60
2023/08/21 00:54:52;;;;;;;13.93;9.30;;;;;;;21.16;78.75;96379.84;2040955;28;20416;-60
2023/08/21 00:55:53;;;;;;;10.88;9.10;;;;;;;21.12;79.08;96378.44;2049181;29;20062;-58
2023/08/21 00:56:54;;;;;;;10.90;9.20;;;;;;;21.12;78.85;96381.09;2065097;28;20065;-60
2023/08/21 00:57:55;;;;;;;10.55;8.88;;;;;;;21.09;79.25;96376.03;2057238;28;20534;-59
2023/08/21 00:58:56;;;;;;;10.07;9.07;;;;;;;21.06;79.24;96376.28;2057050;28;20062;-59
2023/08/21 01:00:00;;;;;;;12.25;8.93;;;;;;;21.02;79.39;96369.59;2065972;28;20042;-60
2023/08/21 01:01:01;;;;;;;13.57;8.48;;;;;;;21.05;79.62;96382.56;2065152;28;20110;-60
2023/08/21 01:02:04;;;;;;;11.38;9.20;;;;;;;21.02;79.71;96375.72;2062476;28;20126;-60
2023/08/21 01:03:05;;;;;;;12.18;9.35;;;;;;;21.00;79.53;96374.19;2064675;28;20057;-59
2023/08/21 01:04:08;;;;;;;12.23;8.80;;;;;;;20.99;79.42;96375.16;2064442;28;20054;-60
2023/08/21 01:05:09;;;;;;;14.73;8.85;;;;;;;20.98;79.64;96373.47;2056750;28;20051;-60
2023/08/21 01:06:10;;;;;;;10.75;7.95;;;;;;;20.94;79.88;96375.53;2049038;29;20047;-59
2023/08/21 01:07:11;;;;;;;12.48;9.40;;;;;;;20.92;79.96;96377.44;2057056;28;20050;-59
2023/08/21 01:08:36;;;;;;;13.60;9.32;;;;;;;20.86;80.16;96365.59;2056749;28;20054;-60
2023/08/21 01:09:57;;;;;;;10.60;8.63;;;;;;;20.86;80.63;96375.31;2057083;28;20046;-60
2023/08/21 01:11:19;;;;;;;10.00;8.80;;;;;;;20.89;80.63;96380.34;2051727;28;20051;-60
2023/08/21 01:12:55;;;;;;;11.93;8.75;;;;;;;20.84;80.56;96378.06;2057330;28;20050;-60
2023/08/21 01:14:24;;;;;;;10.90;8.73;;;;;;;20.79;81.14;96379.41;2061805;28;20054;-60
2023/08/21 01:15:25;;;;;;;10.30;9.27;;;;;;;20.84;80.69;96382.53;2057046;28;20055;-58
2023/08/21 01:16:26;;;;;;;10.85;9.30;;;;;;;20.83;80.46;96380.84;2057181;28;20057;-58
2023/08/21 01:17:29;;;;;;;11.27;9.15;;;;;;;20.84;79.88;96377.25;2049007;29;20051;-58
2023/08/21 01:18:30;;;;;;;12.13;9.95;;;;;;;20.85;79.13;96377.13;2049291;28;20059;-58
2023/08/21 01:19:36;;;;;;;11.35;9.63;;;;;;;20.83;80.17;96386.13;2041186;29;20063;-57
2023/08/21 01:20:37;;;;;;;12.45;9.63;;;;;;;20.75;79.24;96364.81;2042972;28;20432;-60
2023/08/21 01:21:39;;;;;;;12.77;9.90;;;;;;;20.83;79.09;96376.41;2056870;28;20430;-60
2023/08/21 01:22:40;;;;;;;11.77;9.18;;;;;;;20.81;78.98;96375.69;2041257;29;20060;-58
2023/08/21 01:23:44;;;;;;;11.55;9.15;;;;;;;20.80;79.16;96378.47;2049088;28;20455;-57
2023/08/21 01:24:45;;;;;;;12.65;9.20;;;;;;;20.79;80.11;96382.88;2065004;28;20050;-60
2023/08/21 01:25:46;;;;;;;10.05;9.05;;;;;;;20.75;80.75;96380.66;2065196;28;20069;-57
2023/08/21 01:26:47;;;;;;;10.88;9.77;;;;;;;20.71;80.96;96380.03;2064860;28;20069;-57
2023/08/21 01:27:49;;;;;;;9.98;8.98;;;;;;;20.64;80.88;96381.53;2056321;28;20057;-57
2023/08/21 01:28:50;;;;;;;10.88;8.98;;;;;;;20.62;81.51;96388.72;2056676;28;20058;-57
2023/08/21 01:29:51;;;;;;;12.90;9.63;;;;;;;20.58;81.67;96382.00;2064503;28;20560;-58
2023/08/21 01:31:13;;;;;;;14.63;9.75;;;;;;;20.55;81.88;96392.81;2057340;28;20115;-58
2023/08/21 01:32:27;;;;;;;12.20;9.70;;;;;;;20.47;81.97;96375.78;2052081;28;20508;-57
2023/08/21 01:33:28;;;;;;;12.82;10.55;;;;;;;20.45;81.99;96382.97;2060899;28;20384;-58
2023/08/21 01:34:33;;;;;;;11.48;9.77;;;;;;;20.41;82.06;96380.72;2064653;28;20145;-58
2023/08/21 01:35:34;;;;;;;12.38;10.27;;;;;;;20.42;82.01;96385.00;2057091;28;20503;-58
2023/08/21 01:36:35;;;;;;;10.77;9.65;;;;;;;20.42;82.47;96388.50;2049237;28;20058;-59
2023/08/21 01:37:36;;;;;;;11.00;9.90;;;;;;;20.40;82.42;96390.44;2041310;29;20481;-58
2023/08/21 01:38:38;;;;;;;11.48;9.50;;;;;;;20.37;82.75;96390.69;2048924;28;20051;-58
2023/08/21 01:39:39;;;;;;;10.93;9.15;;;;;;;20.32;82.93;96389.38;2056834;28;20055;-58
2023/08/21 01:40:40;;;;;;;11.60;9.30;;;;;;;20.30;82.89;96388.66;2049127;28;20492;-58
2023/08/21 01:41:42;;;;;;;11.90;9.70;;;;;;;20.30;83.34;96399.19;2048981;29;20054;-58
2023/08/21 01:42:43;;;;;;;14.85;10.20;;;;;;;20.26;83.38;96388.91;2056888;28;20526;-58
2023/08/21 01:43:44;;;;;;;13.88;10.15;;;;;;;20.25;83.52;96396.91;2065351;28;20054;-58
2023/08/21 01:44:46;;;;;;;14.80;10.40;;;;;;;20.21;83.47;96390.22;2065257;28;20054;-58
2023/08/21 01:45:47;;;;;;;11.20;10.02;;;;;;;20.20;83.93;96397.28;2065376;28;20058;-57
2023/08/21 01:46:48;;;;;;;14.43;10.68;;;;;;;20.19;83.80;96386.88;2064918;28;20182;-57
2023/08/21 01:47:50;;;;;;;11.07;9.85;;;;;;;20.19;84.04;96392.16;2056517;28;20055;-58
2023/08/21 01:48:51;;;;;;;13.23;10.30;;;;;;;20.16;84.02;96393.22;2056988;28;20121;-58
2023/08/21 01:49:52;;;;;;;12.68;10.02;;;;;;;20.15;84.54;96394.16;2056630;28;20062;-58
2023/08/21 01:50:53;;;;;;;11.10;9.50;;;;;;;20.14;84.68;96399.56;2056468;28;20051;-58
2023/08/21 01:51:54;;;;;;;11.70;9.23;;;;;;;20.12;84.97;96398.84;2056808;28;20051;-58
2023/08/21 01:52:55;;;;;;;12.98;10.40;;;;;;;20.10;84.92;96401.63;2065608;28;20058;-60
2023/08/21 01:53:56;;;;;;;13.90;10.55;;;;;;;20.09;85.13;96396.47;2065280;28;20058;-58
2023/08/21 01:54:59;;;;;;;10.82;9.73;;;;;;;20.07;85.30;96398.38;2056790;28;20058;-58
2023/08/21 01:56:00;;;;;;;11.10;8.55;;;;;;;20.03;85.36;96398.63;2056849;28;20508;-58
2023/08/21 01:57:01;;;;;;;13.20;9.82;;;;;;;20.01;85.29;96400.53;2056537;28;20059;-58
2023/08/21 01:58:02;;;;;;;11.93;10.73;;;;;;;20.00;85.52;96398.88;2048952;29;20055;-58
2023/08/21 01:59:04;;;;;;;11.90;10.00;;;;;;;19.99;85.28;96393.69;2057067;28;20051;-58
2023/08/21 02:00:06;;;;;;;13.32;9.75;;;;;;;19.97;85.31;96393.84;2056672;28;20047;-58
2023/08/21 02:01:15;;;;;;;11.02;9.85;;;;;;;19.98;85.45;96392.88;2058165;28;20054;-58
2023/08/21 02:02:16;;;;;;;14.02;10.30;;;;;;;19.98;85.49;96398.13;2065940;28;20045;-58
2023/08/21 02:03:18;;;;;;;13.10;10.23;;;;;;;19.96;85.64;96402.69;2058232;28;20058;-60
2023/08/21 02:04:19;;;;;;;10.90;9.48;;;;;;;19.94;85.99;96406.41;2058366;28;20062;-59
2023/08/21 02:05:20;;;;;;;12.23;10.55;;;;;;;19.94;85.91;96409.91;2066825;28;20054;-59
2023/08/21 02:06:21;;;;;;;12.50;10.15;;;;;;;19.94;85.84;96404.63;2058294;28;20062;-58
2023/08/21 02:07:22;;;;;;;11.57;10.35;;;;;;;19.94;86.02;96409.03;2058054;28;20059;-58
2023/08/21 02:08:30;;;;;;;11.77;9.48;;;;;;;19.91;85.83;96407.47;2050651;29;20063;-58
2023/08/21 02:09:31;;;;;;;14.95;10.60;;;;;;;19.89;85.83;96404.16;2059238;28;20074;-58
2023/08/21 02:10:32;;;;;;;11.00;9.90;;;;;;;19.88;86.10;96405.09;2066650;28;20054;-60
2023/08/21 02:11:33;;;;;;;10.65;9.55;;;;;;;19.85;85.95;96407.97;2058000;28;20062;-58
2023/08/21 02:12:34;;;;;;;13.45;10.38;;;;;;;19.83;86.08;96410.75;2058462;28;20054;-58
2023/08/21 02:13:36;;;;;;;11.35;10.00;;;;;;;19.81;86.22;96409.19;2058383;28;20416;-59
2023/08/21 02:14:37;;;;;;;10.93;9.77;;;;;;;19.77;86.24;96397.19;2058308;28;20135;-59
2023/08/21 02:15:38;;;;;;;11.93;9.35;;;;;;;19.72;86.89;96409.88;2058355;28;20073;-58
2023/08/21 02:16:39;;;;;;;11.50;10.18;;;;;;;19.70;86.75;96401.25;2050347;28;20055;-58
2023/08/21 02:17:42;;;;;;;13.23;9.75;;;;;;;19.65;87.25;96403.38;2050467;28;20066;-58
2023/08/21 02:18:43;;;;;;;11.93;9.70;;;;;;;19.57;88.16;96401.34;2058280;28;20055;-58
2023/08/21 02:19:44;;;;;;;10.98;9.80;;;;;;;19.54;88.14;96406.81;2066286;28;20046;-58
2023/08/21 02:20:47;;;;;;;14.25;10.57;;;;;;;19.52;88.29;96400.84;2067020;28;20054;-58
2023/08/21 02:21:48;;;;;;;12.13;9.70;;;;;;;19.50;88.33;96406.22;2066792;28;20050;-58
2023/08/21 02:22:49;;;;;;;12.65;10.35;;;;;;;19.47;88.59;96400.38;2058184;28;20055;-58
2023/08/21 02:23:50;;;;;;;13.73;10.45;;;;;;;19.45;88.48;96397.00;2049833;29;20051;-58
2023/08/21 02:24:51;;;;;;;13.52;9.57;;;;;;;19.45;88.62;96407.53;2058158;28;20051;-58
2023/08/21 02:25:53;;;;;;;12.02;10.35;;;;;;;19.43;88.75;96402.38;2058140;28;20503;-59
2023/08/21 02:26:54;;;;;;;12.07;9.95;;;;;;;19.39;88.88;96409.69;2058354;28;20055;-58
2023/08/21 02:27:56;;;;;;;12.40;9.75;;;;;;;19.38;88.90;96408.00;2057798;28;20451;-58
2023/08/21 02:28:57;;;;;;;13.15;10.48;;;;;;;19.34;88.96;96406.56;2057930;28;20059;-59
2023/08/21 02:29:58;;;;;;;11.68;10.32;;;;;;;19.32;88.87;96403.19;2066356;28;20077;-59
2023/08/21 02:30:59;;;;;;;15.23;10.02;;;;;;;19.29;89.08;96400.78;2067020;28;20050;-58
2023/08/21 02:32:00;;;;;;;10.60;9.50;;;;;;;19.27;89.41;96405.34;2066658;28;20042;-58
2023/08/21 02:33:02;;;;;;;13.38;10.52;;;;;;;19.26;88.98;96403.66;2066432;28;20046;-58
2023/08/21 02:34:03;;;;;;;13.60;10.43;;;;;;;19.27;88.83;96407.13;2057768;28;20060;-58
2023/08/21 02:35:05;;;;;;;11.98;10.32;;;;;;;19.25;88.92;96402.00;2050282;28;20055;-59
2023/08/21 02:36:07;;;;;;;12.45;10.50;;;;;;;19.23;88.97;96403.91;2057970;28;20054;-59
2023/08/21 02:37:08;;;;;;;15.77;10.73;;;;;;;19.23;88.90;96403.06;2066752;28;20059;-59
2023/08/21 02:38:09;;;;;;;16.17;10.50;;;;;;;19.20;89.07;96401.50;2066808;28;20046;-58
2023/08/21 02:39:10;;;;;;;13.45;10.45;;;;;;;19.20;88.99;96396.22;2066174;28;20065;-58
2023/08/21 02:40:11;;;;;;;14.82;10.70;;;;;;;19.21;88.85;96400.53;2066799;28;20055;-59
2023/08/21 02:41:13;;;;;;;13.15;10.68;;;;;;;19.20;89.13;96400.66;2058092;28;20050;-59
2023/08/21 02:42:14;;;;;;;12.60;10.07;;;;;;;19.18;88.71;96398.97;2058356;28;20427;-59
2023/08/21 02:43:16;;;;;;;11.70;10.45;;;;;;;19.14;89.09;96394.91;2066300;28;20479;-58
2023/08/21 02:44:17;;;;;;;11.63;10.40;;;;;;;19.18;88.93;96400.78;2066519;28;20073;-58
2023/08/21 02:45:19;;;;;;;14.30;10.50;;;;;;;19.18;89.11;96393.69;2066468;28;20089;-60
2023/08/21 02:46:20;;;;;;;12.30;9.65;;;;;;;19.18;88.85;96398.13;2066668;28;20136;-58
2023/08/21 02:47:21;;;;;;;12.93;10.45;;;;;;;19.17;88.97;96399.94;2057979;28;20066;-60
2023/08/21 02:48:22;;;;;;;16.20;10.82;;;;;;;19.18;89.01;96406.88;2057701;28;20062;-60
2023/08/21 02:49:23;;;;;;;12.02;10.05;;;;;;;19.16;89.06;96400.91;2066627;28;20415;-60
2023/08/21 02:50:24;;;;;;;16.88;11.45;;;;;;;19.14;88.96;96400.16;2066332;28;20058;-61
2023/08/21 02:51:25;;;;;;;14.15;10.93;;;;;;;19.16;89.21;96400.03;2057992;28;20055;-57
2023/08/21 02:52:26;;;;;;;14.85;10.70;;;;;;;19.16;89.22;96400.03;2057951;28;20042;-60
2023/08/21 02:53:27;;;;;;;13.65;11.05;;;;;;;19.15;88.97;96404.47;2066390;28;20069;-60
2023/08/21 02:54:28;;;;;;;14.90;10.43;;;;;;;19.13;89.32;96406.38;2066539;28;20061;-60
2023/08/21 02:55:30;;;;;;;12.68;11.38;;;;;;;19.13;89.09;96406.38;2066558;28;20054;-58
2023/08/21 02:56:31;;;;;;;14.60;10.95;;;;;;;19.13;89.22;96400.28;2066600;28;20513;-58
2023/08/21 02:57:32;;;;;;;14.98;11.35;;;;;;;19.13;89.44;96400.28;2065975;28;20058;-58
2023/08/21 02:58:33;;;;;;;15.73;11.30;;;;;;;19.13;89.48;96398.47;2057366;28;20479;-59
2023/08/21 02:59:34;;;;;;;11.88;10.68;;;;;;;19.12;89.48;96406.50;2057016;28;20054;-59
2023/08/21 03:00:35;;;;;;;16.00;11.63;;;;;;;19.06;89.78;96402.53;2066520;28;20054;-59
2023/08/21 03:01:36;;;;;;;15.95;11.98;;;;;;;19.06;89.81;96399.03;2058002;28;20052;-58
2023/08/21 03:02:38;;;;;;;14.88;11.75;;;;;;;19.01;89.87;96393.31;2057810;28;20062;-58
2023/08/21 03:03:39;;;;;;;15.48;11.05;;;;;;;19.04;89.97;96403.59;2066253;28;20054;-58
2023/08/21 03:04:40;;;;;;;14.27;11.77;;;;;;;19.01;90.20;96399.41;2058005;28;20502;-58
2023/08/21 03:05:41;;;;;;;12.75;11.45;;;;;;;19.02;90.08;96406.34;2057871;28;20523;-58
2023/08/21 03:06:42;;;;;;;16.08;11.88;;;;;;;19.00;90.58;96400.34;2057795;28;20059;-58
2023/08/21 03:07:43;;;;;;;14.63;12.15;;;;;;;18.98;90.55;96397.00;2058059;28;20054;-58
2023/08/21 03:08:44;;;;;;;14.65;11.98;;;;;;;18.98;90.50;96394.38;2065926;28;20402;-58
2023/08/21 03:09:47;;;;;;;13.20;11.73;;;;;;;18.98;90.62;96397.00;2066596;28;20077;-58
2023/08/21 03:10:48;;;;;;;18.58;12.05;;;;;;;18.98;90.99;96402.28;2057844;28;20066;-58
2023/08/21 03:11:49;;;;;;;15.55;12.38;;;;;;;18.97;90.51;96403.22;2057963;28;20087;-58
2023/08/21 03:12:51;;;;;;;15.80;12.18;;;;;;;18.94;90.68;96393.75;2066410;28;20050;-61
2023/08/21 03:13:52;;;;;;;13.20;10.88;;;;;;;18.93;90.83;96399.16;2065969;28;20054;-60
2023/08/21 03:14:53;;;;;;;13.00;11.65;;;;;;;18.91;90.61;96399.25;2057033;28;20059;-60
2023/08/21 03:15:54;;;;;;;14.23;11.05;;;;;;;18.88;90.58;96393.38;2057748;28;20537;-59
2023/08/21 03:16:55;;;;;;;14.48;12.43;;;;;;;18.85;91.09;96397.06;2057397;28;20058;-60
2023/08/21 03:17:56;;;;;;;12.35;10.95;;;;;;;18.79;91.01;96391.41;2057970;28;20058;-60
2023/08/21 03:18:59;;;;;;;15.30;11.77;;;;;;;18.81;91.33;96400.03;2057185;28;20057;-60
2023/08/21 03:20:04;;;;;;;13.40;11.50;;;;;;;18.75;91.39;96387.34;2049751;28;20048;-60
2023/08/21 03:21:05;;;;;;;14.35;11.73;;;;;;;18.78;91.49;96397.63;2057593;28;20050;-60
2023/08/21 03:22:07;;;;;;;14.93;12.15;;;;;;;18.72;91.40;96393.63;2057893;28;20388;-59
2023/08/21 03:23:08;;;;;;;15.40;12.07;;;;;;;18.73;91.23;96395.31;2056824;28;20062;-60
2023/08/21 03:24:09;;;;;;;13.55;11.75;;;;;;;18.72;91.28;96399.72;2066283;28;20050;-59
2023/08/21 03:25:11;;;;;;;15.10;12.40;;;;;;;18.73;91.46;96401.41;2057306;28;20400;-60
2023/08/21 03:26:12;;;;;;;17.15;12.48;;;;;;;18.70;91.46;96395.53;2049733;29;20538;-59
2023/08/21 03:27:16;;;;;;;13.77;12.27;;;;;;;18.69;91.27;96399.97;2049643;29;20396;-60
2023/08/21 03:28:17;;;;;;;16.60;13.02;;;;;;;18.67;91.48;96401.84;2058178;28;20046;-60
2023/08/21 03:29:18;;;;;;;22.77;12.75;;;;;;;18.65;91.64;96400.28;2057669;28;20058;-60
2023/08/21 03:30:19;;;;;;;16.17;12.88;;;;;;;18.64;91.69;96409.16;2057942;28;20062;-60
2023/08/21 03:31:20;;;;;;;16.08;12.40;;;;;;;18.64;91.76;96402.09;2057867;28;20066;-60
2023/08/21 03:32:21;;;;;;;15.07;12.63;;;;;;;18.62;91.94;96403.97;2057474;28;20058;-60
2023/08/21 03:33:22;;;;;;;15.75;12.77;;;;;;;18.62;91.87;96393.47;2057878;28;20059;-60
2023/08/21 03:34:24;;;;;;;13.23;11.80;;;;;;;18.60;91.78;96395.34;2056847;28;20065;-59
2023/08/21 03:35:29;;;;;;;15.13;12.93;;;;;;;18.57;92.16;96400.84;2057574;28;20059;-60
2023/08/21 03:36:33;;;;;;;14.82;13.35;;;;;;;18.57;92.31;96405.28;2049642;29;20066;-60
2023/08/21 03:37:36;;;;;;;20.00;13.20;;;;;;;18.53;92.42;96394.16;2050175;28;20383;-60
2023/08/21 03:38:38;;;;;;;14.88;13.05;;;;;;;18.53;92.54;96399.41;2057599;28;20062;-60
2023/08/21 03:39:39;;;;;;;16.08;13.45;;;;;;;18.50;92.70;96397.84;2065292;28;20062;-60
2023/08/21 03:40:40;;;;;;;14.32;12.45;;;;;;;18.49;92.40;96395.31;2056650;28;20055;-60
2023/08/21 03:41:42;;;;;;;18.83;13.10;;;;;;;18.49;92.67;96401.41;2049514;29;20059;-61
2023/08/21 03:42:43;;;;;;;14.68;13.07;;;;;;;18.49;92.34;96397.94;2057122;28;20479;-59
2023/08/21 03:43:44;;;;;;;15.70;12.10;;;;;;;18.46;92.79;96392.91;2057634;28;20117;-59
2023/08/21 03:44:48;;;;;;;14.40;12.65;;;;;;;18.45;92.77;96396.50;2057439;28;20069;-59
2023/08/21 03:45:49;;;;;;;16.13;12.55;;;;;;;18.44;92.52;96395.66;2065240;28;20533;-59
2023/08/21 03:46:50;;;;;;;18.80;13.15;;;;;;;18.43;92.99;96396.59;2057869;28;20070;-60
2023/08/21 03:47:51;;;;;;;16.58;13.00;;;;;;;18.45;92.51;96399.13;2049587;29;20055;-59
2023/08/21 03:48:54;;;;;;;13.70;12.10;;;;;;;18.45;92.95;96399.97;2057917;28;20058;-60
2023/08/21 03:49:55;;;;;;;15.88;12.38;;;;;;;18.46;93.27;96403.41;2064737;28;20502;-60
2023/08/21 03:50:58;;;;;;;17.90;13.40;;;;;;;18.45;93.23;96404.38;2057178;28;20054;-60
2023/08/21 03:51:59;;;;;;;16.65;12.88;;;;;;;18.45;93.12;96401.75;2057206;28;20081;-59
2023/08/21 03:53:00;;;;;;;17.92;13.05;;;;;;;18.45;92.61;96404.38;2066159;28;20053;-59
2023/08/21 03:54:02;;;;;;;14.50;12.55;;;;;;;18.44;93.04;96405.31;2066185;28;20046;-59
2023/08/21 03:55:04;;;;;;;14.23;11.88;;;;;;;18.43;93.10;96401.84;2065202;28;20054;-59
2023/08/21 03:56:05;;;;;;;13.93;12.35;;;;;;;18.42;93.18;96400.19;2057570;28;20117;-59
2023/08/21 03:57:07;;;;;;;14.07;12.57;;;;;;;18.40;93.21;96402.06;2057357;28;20046;-59
2023/08/21 03:58:08;;;;;;;17.75;13.32;;;;;;;18.42;92.96;96409.88;2057230;28;20050;-60
2023/08/21 03:59:09;;;;;;;16.10;12.50;;;;;;;18.42;92.87;96408.06;2056959;28;20047;-60
2023/08/21 04:00:11;;;;;;;14.75;12.25;;;;;;;18.42;93.17;96407.25;2057630;28;20065;-60
2023/08/21 04:01:18;;;;;;;16.08;12.60;;;;;;;18.43;93.08;96407.09;2058575;28;20047;-59
2023/08/21 04:02:19;;;;;;;16.08;13.50;;;;;;;18.44;93.13;96408.81;2057454;28;20059;-59
2023/08/21 04:03:20;;;;;;;14.90;12.65;;;;;;;18.41;93.34;96406.38;2049769;28;20524;-59
2023/08/21 04:04:21;;;;;;;16.33;13.30;;;;;;;18.41;93.03;96411.63;2056808;28;20510;-59
2023/08/21 04:05:22;;;;;;;18.00;13.80;;;;;;;18.42;92.95;96417.75;2065661;28;20054;-59
2023/08/21 04:06:24;;;;;;;15.05;13.20;;;;;;;18.43;93.18;96419.44;2066258;28;20050;-59
2023/08/21 04:07:25;;;;;;;16.23;13.13;;;;;;;18.44;93.63;96411.44;2056865;28;20051;-59
2023/08/21 04:08:26;;;;;;;18.20;13.73;;;;;;;18.44;93.70;96414.06;2057595;28;20058;-59
2023/08/21 04:09:27;;;;;;;16.08;12.90;;;;;;;18.44;93.68;96415.84;2064873;28;20057;-60
2023/08/21 04:10:28;;;;;;;16.13;13.45;;;;;;;18.44;93.58;96418.47;2057179;28;20510;-59
2023/08/21 04:11:31;;;;;;;15.38;13.32;;;;;;;18.41;93.52;96418.69;2049218;28;20058;-60
2023/08/21 04:12:32;;;;;;;17.55;12.68;;;;;;;18.38;93.54;96416.28;2057487;28;20511;-59
2023/08/21 04:13:33;;;;;;;16.70;13.85;;;;;;;18.39;93.46;96420.56;2057486;28;20046;-59
2023/08/21 04:14:34;;;;;;;17.23;14.00;;;;;;;18.37;93.51;96419.88;2057316;28;20050;-60
2023/08/21 04:15:35;;;;;;;18.00;14.95;;;;;;;18.36;93.35;96419.00;2066019;28;20062;-60
2023/08/21 04:16:40;;;;;;;22.67;16.08;;;;;;;18.39;93.43;96425.84;2057543;28;20154;-60
2023/08/21 04:17:41;;;;;;;20.73;15.82;;;;;;;18.37;93.02;96430.38;2049427;28;20055;-60
2023/08/21 04:18:42;;;;;;;18.52;14.77;;;;;;;18.39;93.38;96434.59;2049454;28;20546;-60
2023/08/21 04:19:43;;;;;;;19.13;16.13;;;;;;;18.41;93.06;96431.84;2056675;28;20062;-60
2023/08/21 04:20:44;;;;;;;15.98;14.30;;;;;;;18.43;92.69;96429.94;2065950;28;20085;-60
2023/08/21 04:21:45;;;;;;;21.23;15.23;;;;;;;18.43;93.09;96429.94;2066075;28;20058;-60
2023/08/21 04:22:47;;;;;;;16.90;14.70;;;;;;;18.41;92.89;96429.19;2057485;28;20059;-60
2023/08/21 04:23:48;;;;;;;19.80;14.18;;;;;;;18.39;93.14;96437.22;2049330;28;20082;-60
2023/08/21 04:24:49;;;;;;;18.58;15.10;;;;;;;18.38;92.80;96426.81;2057368;28;20070;-60
2023/08/21 04:25:50;;;;;;;17.67;15.20;;;;;;;18.41;92.76;96435.28;2056468;28;20063;-60
2023/08/21 04:26:51;;;;;;;19.08;14.68;;;;;;;18.40;92.90;96430.16;2057147;28;20063;-60
2023/08/21 04:27:53;;;;;;;18.42;14.13;;;;;;;18.43;92.85;96436.03;2065291;28;20073;-60
2023/08/21 04:28:54;;;;;;;19.08;14.05;;;;;;;18.45;92.44;96433.31;2056642;28;20142;-60
2023/08/21 04:29:55;;;;;;;23.10;14.50;;;;;;;18.46;91.89;96437.59;2049423;28;20055;-60
2023/08/21 04:30:57;;;;;;;17.38;14.00;;;;;;;18.50;91.97;96431.19;2056929;28;20058;-60
2023/08/21 04:31:59;;;;;;;19.38;13.93;;;;;;;18.56;91.23;96445.69;2049374;28;20059;-60
2023/08/21 04:33:00;;;;;;;20.02;14.32;;;;;;;18.59;90.89;96434.94;2056949;28;20055;-60
2023/08/21 04:34:01;;;;;;;19.83;13.68;;;;;;;18.62;90.52;96429.44;2057146;28;20435;-60
2023/08/21 04:35:03;;;;;;;20.45;14.23;;;;;;;18.63;89.66;96431.13;2056661;28;20499;-60
2023/08/21 04:36:04;;;;;;;25.13;13.32;;;;;;;18.69;88.23;96436.78;2056596;28;20054;-60
2023/08/21 04:37:06;;;;;;;16.80;13.35;;;;;;;18.69;87.42;96439.41;2057244;28;20054;-60
2023/08/21 04:38:07;;;;;;;16.15;12.65;;;;;;;18.74;86.31;96449.63;2057195;28;20050;-60
2023/08/21 04:39:09;;;;;;;19.35;13.38;;;;;;;18.78;85.66;96442.38;2056983;28;20412;-60
2023/08/21 04:40:11;;;;;;;19.52;13.13;;;;;;;18.80;85.19;96437.84;2057737;28;20046;-60
2023/08/21 04:41:13;;;;;;;16.35;12.95;;;;;;;18.84;84.63;96447.16;2056790;28;20455;-60
2023/08/21 04:42:17;;;;;;;15.32;12.45;;;;;;;18.85;84.66;96440.97;2065231;28;20054;-60
2023/08/21 04:43:18;;;;;;;20.35;12.55;;;;;;;18.97;84.47;96439.22;2057196;28;20051;-60
2023/08/21 04:44:21;;;;;;;16.38;11.77;;;;;;;18.99;83.75;96440.78;2049142;28;20436;-60
2023/08/21 04:45:22;;;;;;;19.10;12.38;;;;;;;19.03;83.58;96433.50;2049250;28;20059;-60
2023/08/21 04:46:23;;;;;;;15.70;12.13;;;;;;;19.12;83.53;96438.94;2049278;29;20054;-60
2023/08/21 04:47:28;;;;;;;19.20;12.80;;;;;;;19.16;82.93;96440.38;2057069;28;20059;-60